Flugplatz Bremen

Bericht für EDDW

vom 14.11. um 04:50 UTC

Wind 6 kt aus 210°

Sichtweite 5000 m

feuchter Dunst

bedeckt in 600 ft

Temperatur 7.0°C

Taupunkt 6.0°C

Luftfeuchtigkeit 93%

Luftdruck 1027 hPa

EDDW 140450Z 21006KT 5000 BR OVC006 07/06 Q1027 TEMPO 2000 BCFG OVC004

Prognose für EDDW

vom 13.11. um 23:00 UTC

Zwischen 00:00 UTC und 13:00 UTC

Wind 7 kt aus 230°

Sichtweite 10 km oder mehr

gering bewölkt in 2500 ft


Zwischen 02:00 UTC und 09:00 UTC zeitweise mit einer Wahrscheinlichkeit von 30%

Sichtweite 4000 m

feuchter Dunst

aufgebrochene Bewölkung in 300 ft


Zwischen 13:00 und 16:00 UTC übergehend zu

Wind 5 kt aus 160°

Sichtweite 10 km oder mehr

gering bewölkt in 2500 ft

TAF EDDW 132300Z 1400/1424 23007KT 9999 FEW025 PROB30 TEMPO 1402/1409 4000 BR BKN003 BECMG 1413/1416 16005KT
Impressum